Time;durP1;ratioP1;P1;durP2;ratioP2;P2;SDS_P1;SDS_P2;PMS_P1;PMS_P2;Temp;Humidity;BMP_temperature;BMP_pressure;BME280_temperature;BME280_humidity;BME280_pressure;Samples;Min_cycle;Max_cycle;Signal;HPM_P1;HPM_P2
2020/12/07 00:02:25;;;;;;;;;71.00;60.67;;;;;;;;4913953;28;8836;-83
2020/12/07 00:04:53;;;;;;;;;80.00;65.67;;;;;;;;4899406;29;8907;-82
2020/12/07 00:07:20;;;;;;;;;53.67;48.67;;;;;;;;4922393;28;8846;-83
2020/12/07 00:09:46;;;;;;;;;67.00;58.00;;;;;;;;4940419;28;8919;-82
2020/12/07 00:12:13;;;;;;;;;75.67;60.67;;;;;;;;4936321;28;8912;-84
2020/12/07 00:14:40;;;;;;;;;70.00;57.33;;;;;;;;4943322;28;8885;-84
2020/12/07 00:17:07;;;;;;;;;67.00;56.33;;;;;;;;4929300;28;8900;-80
2020/12/07 00:19:34;;;;;;;;;81.00;61.00;;;;;;;;4915178;28;8931;-84
2020/12/07 00:22:02;;;;;;;;;69.67;58.33;;;;;;;;4949198;28;8873;-82
2020/12/07 00:24:29;;;;;;;;;68.00;58.00;;;;;;;;4948550;28;9002;-83
2020/12/07 00:26:55;;;;;;;;;62.67;54.00;;;;;;;;4951230;28;8872;-80
2020/12/07 00:29:22;;;;;;;;;42.33;40.67;;;;;;;;4940972;28;8863;-84
2020/12/07 00:31:49;;;;;;;;;42.67;42.67;;;;;;;;4934169;28;8859;-84
2020/12/07 00:34:18;;;;;;;;;63.33;53.67;;;;;;;;4917689;28;8893;-82
2020/12/07 00:36:47;;;;;;;;;36.33;36.00;;;;;;;;4907684;28;8885;-83
2020/12/07 00:39:15;;;;;;;;;57.00;51.00;;;;;;;;4913934;28;8887;-80
2020/12/07 00:41:42;;;;;;;;;51.33;48.33;;;;;;;;4948864;28;8872;-80
2020/12/07 00:44:09;;;;;;;;;49.33;46.67;;;;;;;;4902088;29;8886;-84
2020/12/07 00:46:35;;;;;;;;;56.00;51.33;;;;;;;;4912359;28;8857;-79
2020/12/07 00:49:02;;;;;;;;;44.00;40.00;;;;;;;;4907825;28;8890;-85
2020/12/07 00:51:29;;;;;;;;;33.00;33.00;;;;;;;;4937680;28;8888;-80
2020/12/07 00:53:55;;;;;;;;;57.00;51.33;;;;;;;;4931349;28;8891;-83
2020/12/07 00:56:23;;;;;;;;;62.00;49.67;;;;;;;;4931212;28;8901;-82
2020/12/07 00:58:50;;;;;;;;;65.00;54.67;;;;;;;;4943310;28;8923;-84
2020/12/07 01:01:17;;;;;;;;;58.67;51.00;;;;;;;;4929526;28;8861;-83
2020/12/07 01:03:44;;;;;;;;;52.00;49.00;;;;;;;;4933594;28;8869;-83
2020/12/07 01:06:11;;;;;;;;;45.33;44.00;;;;;;;;4939606;28;8918;-83
2020/12/07 01:08:38;;;;;;;;;53.33;49.67;;;;;;;;4931809;28;8905;-83
2020/12/07 01:11:05;;;;;;;;;67.67;52.67;;;;;;;;4928728;28;8919;-83
2020/12/07 01:13:33;;;;;;;;;47.33;44.00;;;;;;;;4947696;28;9597;-84
2020/12/07 01:16:00;;;;;;;;;60.00;51.67;;;;;;;;4946639;28;8862;-85
2020/12/07 01:18:27;;;;;;;;;59.00;52.67;;;;;;;;4921872;28;8890;-84
2020/12/07 01:20:54;;;;;;;;;63.00;55.33;;;;;;;;4960804;28;8931;-81
2020/12/07 01:23:21;;;;;;;;;40.00;40.00;;;;;;;;4928243;28;8875;-84
2020/12/07 01:25:48;;;;;;;;;34.33;34.33;;;;;;;;4907790;29;8888;-81
2020/12/07 01:28:15;;;;;;;;;51.67;48.67;;;;;;;;4929209;28;8923;-81
2020/12/07 01:30:43;;;;;;;;;58.33;47.33;;;;;;;;4954051;28;8825;-80
2020/12/07 01:33:10;;;;;;;;;45.00;43.33;;;;;;;;4926385;28;8899;-79
2020/12/07 01:35:36;;;;;;;;;54.00;47.00;;;;;;;;4931622;28;8864;-81
2020/12/07 01:38:03;;;;;;;;;48.33;46.33;;;;;;;;4936659;28;8877;-85
2020/12/07 01:40:30;;;;;;;;;50.00;44.00;;;;;;;;4947400;28;8926;-84
2020/12/07 01:42:57;;;;;;;;;46.00;44.33;;;;;;;;4933106;28;8853;-83
2020/12/07 01:45:24;;;;;;;;;50.00;47.00;;;;;;;;4944135;28;8993;-84
2020/12/07 01:47:52;;;;;;;;;56.67;51.00;;;;;;;;4892247;29;8868;-78
2020/12/07 01:50:19;;;;;;;;;60.67;49.67;;;;;;;;4933037;28;8889;-81
2020/12/07 01:52:45;;;;;;;;;58.33;50.67;;;;;;;;4911238;28;8894;-83
2020/12/07 01:55:12;;;;;;;;;50.33;47.33;;;;;;;;4914317;28;8923;-88
2020/12/07 01:57:39;;;;;;;;;46.67;43.33;;;;;;;;4949580;28;8867;-84
2020/12/07 02:00:06;;;;;;;;;61.67;52.67;;;;;;;;4931385;28;9733;-84
2020/12/07 02:02:34;;;;;;;;;65.67;52.33;;;;;;;;4947626;28;8858;-80
2020/12/07 02:05:02;;;;;;;;;68.67;56.67;;;;;;;;4931122;28;8903;-84
2020/12/07 02:07:29;;;;;;;;;57.67;50.67;;;;;;;;4929330;28;8889;-83
2020/12/07 02:09:56;;;;;;;;;50.00;47.00;;;;;;;;4931565;28;8860;-83
2020/12/07 02:12:23;;;;;;;;;47.33;45.67;;;;;;;;4940943;28;8883;-82
2020/12/07 02:14:50;;;;;;;;;52.33;46.33;;;;;;;;4903872;29;8877;-84
2020/12/07 02:17:17;;;;;;;;;28.33;28.33;;;;;;;;4914966;28;8893;-87
2020/12/07 02:19:43;;;;;;;;;67.00;54.33;;;;;;;;4946347;28;8904;-80
2020/12/07 02:22:11;;;;;;;;;55.00;47.33;;;;;;;;4940443;28;8928;-83
2020/12/07 02:24:38;;;;;;;;;52.33;41.00;;;;;;;;4935124;28;8938;-86
2020/12/07 02:27:05;;;;;;;;;53.00;44.67;;;;;;;;4938867;28;8861;-86
2020/12/07 02:29:32;;;;;;;;;52.67;48.00;;;;;;;;4953740;28;8847;-85
2020/12/07 02:32:12;;;;;;;;;43.00;41.33;;;;;;;;4932283;28;8977;-82
2020/12/07 02:34:39;;;;;;;;;56.67;49.33;;;;;;;;4937937;28;8865;-86
2020/12/07 02:37:06;;;;;;;;;56.33;46.00;;;;;;;;4926837;28;8900;-86
2020/12/07 02:39:34;;;;;;;;;57.33;49.33;;;;;;;;4921074;28;8865;-81
2020/12/07 02:42:02;;;;;;;;;48.00;42.33;;;;;;;;4901608;29;8887;-84
2020/12/07 02:44:29;;;;;;;;;54.67;50.00;;;;;;;;4904182;28;8873;-83
2020/12/07 02:46:57;;;;;;;;;54.67;45.33;;;;;;;;4937662;28;8954;-81
2020/12/07 02:49:24;;;;;;;;;50.67;47.00;;;;;;;;4935270;28;8895;-79
2020/12/07 02:51:51;;;;;;;;;59.33;52.00;;;;;;;;4957903;28;8905;-87
2020/12/07 02:54:18;;;;;;;;;55.33;49.00;;;;;;;;4955091;28;9659;-86
2020/12/07 02:56:46;;;;;;;;;55.00;48.33;;;;;;;;4941013;28;8887;-88
2020/12/07 02:59:13;;;;;;;;;58.33;51.33;;;;;;;;4924003;28;8915;-85
2020/12/07 03:01:40;;;;;;;;;66.33;55.00;;;;;;;;4893991;29;8874;-86
2020/12/07 03:04:07;;;;;;;;;59.00;50.33;;;;;;;;4901585;28;8889;-85
2020/12/07 03:06:34;;;;;;;;;61.00;52.00;;;;;;;;4941286;28;8902;-78
2020/12/07 03:09:00;;;;;;;;;57.00;52.00;;;;;;;;4949687;28;8880;-89
2020/12/07 03:11:27;;;;;;;;;55.00;48.33;;;;;;;;4926478;28;9603;-87
2020/12/07 03:13:55;;;;;;;;;56.67;49.33;;;;;;;;4940060;28;9657;-79
2020/12/07 03:16:22;;;;;;;;;54.00;47.33;;;;;;;;4946187;28;8862;-83
2020/12/07 03:18:49;;;;;;;;;54.33;48.33;;;;;;;;4941339;28;8853;-82
2020/12/07 03:21:16;;;;;;;;;53.00;48.67;;;;;;;;4959869;28;8908;-86
2020/12/07 03:23:43;;;;;;;;;66.67;55.00;;;;;;;;4918514;28;8877;-83
2020/12/07 03:26:10;;;;;;;;;51.00;48.00;;;;;;;;4939705;28;8911;-84
2020/12/07 03:28:36;;;;;;;;;45.67;45.33;;;;;;;;4925479;28;8910;-84
2020/12/07 03:31:04;;;;;;;;;65.33;54.67;;;;;;;;4940048;28;8890;-84
2020/12/07 03:33:31;;;;;;;;;69.33;51.33;;;;;;;;4936199;28;8885;-83
2020/12/07 03:35:58;;;;;;;;;59.33;50.67;;;;;;;;4902351;29;8893;-84
2020/12/07 03:38:25;;;;;;;;;29.00;17.67;;;;;;;;4908552;29;8892;-87
2020/12/07 03:40:52;;;;;;;;;65.33;56.33;;;;;;;;4925186;28;8871;-87
2020/12/07 03:43:19;;;;;;;;;57.33;47.33;;;;;;;;4934700;28;8901;-85
2020/12/07 03:45:45;;;;;;;;;59.33;44.33;;;;;;;;4938367;28;9726;-85
2020/12/07 03:48:13;;;;;;;;;58.00;49.33;;;;;;;;4941812;28;8915;-86
2020/12/07 03:50:40;;;;;;;;;55.67;49.67;;;;;;;;4952157;28;8882;-87
2020/12/07 03:53:07;;;;;;;;;51.33;47.00;;;;;;;;4966168;28;8869;-86
2020/12/07 03:55:34;;;;;;;;;55.00;48.67;;;;;;;;4939129;28;8913;-85
2020/12/07 03:58:01;;;;;;;;;49.00;47.00;;;;;;;;4940905;28;8916;-84
2020/12/07 04:00:27;;;;;;;;;48.33;39.67;;;;;;;;4944138;28;8805;-83
2020/12/07 04:02:54;;;;;;;;;49.00;40.00;;;;;;;;4928340;28;8885;-80
2020/12/07 04:05:28;;;;;;;;;44.33;34.67;;;;;;;;4929866;28;8873;-81
2020/12/07 04:07:55;;;;;;;;;43.67;36.33;;;;;;;;4939675;28;8867;-81
2020/12/07 04:10:22;;;;;;;;;28.00;28.00;;;;;;;;4933105;28;8987;-86
2020/12/07 04:12:48;;;;;;;;;33.33;32.00;;;;;;;;4907647;28;9047;-86
2020/12/07 04:15:15;;;;;;;;;28.00;25.00;;;;;;;;4933918;28;8869;-89
2020/12/07 04:17:42;;;;;;;;;43.00;33.00;;;;;;;;4938327;28;9619;-80
2020/12/07 04:20:09;;;;;;;;;65.00;51.67;;;;;;;;4952575;28;8916;-83
2020/12/07 04:22:37;;;;;;;;;32.67;32.33;;;;;;;;4947858;28;9643;-86
2020/12/07 04:25:04;;;;;;;;;34.00;27.00;;;;;;;;4948723;28;8896;-81
2020/12/07 04:27:31;;;;;;;;;26.00;26.00;;;;;;;;4929233;28;8880;-84
2020/12/07 04:29:58;;;;;;;;;35.33;35.33;;;;;;;;4943031;28;8948;-85
2020/12/07 04:32:25;;;;;;;;;52.00;46.33;;;;;;;;4946750;28;8846;-85
2020/12/07 04:34:51;;;;;;;;;44.33;38.33;;;;;;;;4948391;28;8874;-83
2020/12/07 04:37:18;;;;;;;;;40.67;34.67;;;;;;;;4942748;28;8953;-81
2020/12/07 04:39:46;;;;;;;;;41.33;39.00;;;;;;;;4953594;28;8855;-83
2020/12/07 04:42:13;;;;;;;;;39.00;37.33;;;;;;;;4940682;28;8871;-85
2020/12/07 04:44:40;;;;;;;;;35.33;33.00;;;;;;;;4931398;28;8862;-80
2020/12/07 04:47:08;;;;;;;;;31.00;30.00;;;;;;;;4937400;28;8882;-84
2020/12/07 04:49:37;;;;;;;;;30.67;30.67;;;;;;;;4944733;28;8869;-82
2020/12/07 04:52:04;;;;;;;;;27.00;27.00;;;;;;;;4946751;28;8940;-83
2020/12/07 04:54:31;;;;;;;;;28.00;28.00;;;;;;;;4952543;28;8881;-81
2020/12/07 04:56:59;;;;;;;;;24.33;24.33;;;;;;;;4936742;28;8950;-82
2020/12/07 04:59:27;;;;;;;;;32.00;23.67;;;;;;;;4930003;28;8885;-85
2020/12/07 05:01:54;;;;;;;;;37.33;34.67;;;;;;;;4948710;28;8861;-83
2020/12/07 05:04:21;;;;;;;;;43.00;31.33;;;;;;;;4931489;28;8878;-86
2020/12/07 05:06:58;;;;;;;;;34.67;28.00;;;;;;;;4944759;28;8860;-84
2020/12/07 05:09:26;;;;;;;;;26.33;23.00;;;;;;;;4936014;28;11680;-87
2020/12/07 05:11:54;;;;;;;;;36.67;33.33;;;;;;;;4939269;28;11688;-81
2020/12/07 05:14:22;;;;;;;;;25.67;25.67;;;;;;;;4934586;28;9058;-83
2020/12/07 05:16:49;;;;;;;;;50.00;30.00;;;;;;;;4894127;28;8875;-83
2020/12/07 05:19:20;;;;;;;;;49.33;31.33;;;;;;;;4938800;28;8868;-87
2020/12/07 05:21:47;;;;;;;;;46.33;42.00;;;;;;;;4913837;28;8903;-86
2020/12/07 05:24:14;;;;;;;;;34.00;34.00;;;;;;;;4906550;29;8879;-90
2020/12/07 05:26:42;;;;;;;;;39.33;32.33;;;;;;;;4896110;29;8999;-82
2020/12/07 05:29:12;;;;;;;;;37.00;37.00;;;;;;;;4907196;29;9015;-85
2020/12/07 05:31:41;;;;;;;;;47.00;40.67;;;;;;;;4900174;29;8833;-79
2020/12/07 05:34:07;;;;;;;;;126.00;83.25;;;;;;;;4903991;28;8913;-86
2020/12/07 05:36:35;;;;;;;;;49.33;43.67;;;;;;;;4905219;28;8875;-82
2020/12/07 05:39:03;;;;;;;;;41.67;34.00;;;;;;;;4897645;28;8911;-82
2020/12/07 05:41:30;;;;;;;;;45.33;41.33;;;;;;;;4901574;29;8909;-85
2020/12/07 05:43:59;;;;;;;;;54.67;44.00;;;;;;;;4894293;29;8892;-83
2020/12/07 05:46:28;;;;;;;;;45.67;37.33;;;;;;;;4900672;28;8939;-83
2020/12/07 05:48:57;;;;;;;;;48.33;40.33;;;;;;;;4902524;28;8876;-83
2020/12/07 05:51:25;;;;;;;;;37.67;32.00;;;;;;;;4910646;28;8882;-80
2020/12/07 05:53:53;;;;;;;;;49.67;37.00;;;;;;;;4900560;28;8877;-82
2020/12/07 05:56:20;;;;;;;;;24.33;24.33;;;;;;;;4906168;29;8897;-83
2020/12/07 05:58:57;;;;;;;;;94.33;68.33;;;;;;;;4905550;29;8845;-83
2020/12/07 06:01:28;;;;;;;;;25.33;25.33;;;;;;;;4903380;28;8844;-80
2020/12/07 06:03:56;;;;;;;;;23.00;21.33;;;;;;;;4901424;28;9615;-83
2020/12/07 06:06:33;;;;;;;;;22.00;22.00;;;;;;;;4890969;29;8899;-83
2020/12/07 06:09:03;;;;;;;;;32.33;30.67;;;;;;;;4896635;28;8903;-81
2020/12/07 06:11:34;;;;;;;;;28.00;28.00;;;;;;;;4908688;29;8866;-85
2020/12/07 06:14:03;;;;;;;;;25.33;24.00;;;;;;;;4893839;29;8881;-84
2020/12/07 06:16:36;;;;;;;;;29.33;29.33;;;;;;;;4896453;29;8891;-81
2020/12/07 06:19:13;;;;;;;;;26.00;23.33;;;;;;;;4896372;28;8892;-80
2020/12/07 06:21:48;;;;;;;;;30.67;28.67;;;;;;;;4898440;29;8881;-73
2020/12/07 06:24:15;;;;;;;;;22.00;22.00;;;;;;;;4892531;29;8873;-74
2020/12/07 06:26:42;;;;;;;;;32.00;32.00;;;;;;;;4902137;29;8877;-70
2020/12/07 06:29:08;;;;;;;;;33.67;32.33;;;;;;;;4903918;29;8895;-70
2020/12/07 06:31:37;;;;;;;;;31.67;24.67;;;;;;;;4897219;29;8833;-71
2020/12/07 06:34:10;;;;;;;;;24.00;24.00;;;;;;;;4916425;28;8875;-70
2020/12/07 06:36:39;;;;;;;;;28.00;28.00;;;;;;;;4921374;28;8911;-70
2020/12/07 06:39:08;;;;;;;;;77.67;57.33;;;;;;;;4932012;28;8894;-70
2020/12/07 06:41:37;;;;;;;;;28.33;27.33;;;;;;;;4937060;28;8873;-71
2020/12/07 06:44:07;;;;;;;;;26.33;24.67;;;;;;;;4930395;28;8940;-71
2020/12/07 06:46:57;;;;;;;;;22.33;22.33;;;;;;;;4932454;28;8895;-71
2020/12/07 06:49:35;;;;;;;;;25.67;25.00;;;;;;;;4930154;28;8919;-70
2020/12/07 06:52:09;;;;;;;;;37.00;33.00;;;;;;;;4928878;28;8895;-71
2020/12/07 06:57:23;;;;;;;;;19.67;19.67;;;;;;;;4906746;28;8837;-70
2020/12/07 07:00:02;;;;;;;;;19.00;18.00;;;;;;;;4904646;28;8869;-70
2020/12/07 07:02:29;;;;;;;;;30.00;30.00;;;;;;;;4893675;29;8836;-71
2020/12/07 07:04:59;;;;;;;;;24.67;24.67;;;;;;;;4894499;29;8865;-70
2020/12/07 07:07:27;;;;;;;;;30.00;30.00;;;;;;;;4906061;29;9620;-71
2020/12/07 07:09:54;;;;;;;;;27.67;27.67;;;;;;;;4904003;28;8887;-70
2020/12/07 07:12:21;;;;;;;;;24.67;24.00;;;;;;;;4905775;29;8871;-70
2020/12/07 07:14:53;;;;;;;;;20.33;20.33;;;;;;;;4905487;29;9268;-72
2020/12/07 07:17:21;;;;;;;;;41.33;38.33;;;;;;;;4906207;29;8888;-71
2020/12/07 07:19:48;;;;;;;;;32.00;32.00;;;;;;;;4906816;29;9020;-71
2020/12/07 07:22:16;;;;;;;;;29.33;29.33;;;;;;;;4906401;29;8865;-70
2020/12/07 07:24:49;;;;;;;;;30.00;30.00;;;;;;;;4922826;28;8858;-71
2020/12/07 07:30:01;;;;;;;;;30.00;30.00;;;;;;;;4905011;28;8984;-70
2020/12/07 07:32:27;;;;;;;;;25.67;25.67;;;;;;;;4902209;28;8857;-70
2020/12/07 07:34:54;;;;;;;;;34.67;28.67;;;;;;;;4909966;29;8868;-71
2020/12/07 07:37:22;;;;;;;;;16.67;16.00;;;;;;;;4900695;29;8998;-71
2020/12/07 07:39:57;;;;;;;;;25.67;25.67;;;;;;;;4919318;28;8887;-70
2020/12/07 07:42:25;;;;;;;;;156.00;115.25;;;;;;;;4913295;28;8876;-70
2020/12/07 07:44:52;;;;;;;;;31.33;30.67;;;;;;;;4927405;28;8877;-70
2020/12/07 07:47:22;;;;;;;;;34.33;32.33;;;;;;;;4924416;28;8907;-70
2020/12/07 08:17:55;;;;;;;;;33.67;33.67;;;;;;;;4888883;28;8914;-71
2020/12/07 08:20:24;;;;;;;;;66.00;52.67;;;;;;;;4906880;28;9700;-70
2020/12/07 08:22:59;;;;;;;;;39.00;39.00;;;;;;;;4891346;28;8902;-70
2020/12/07 08:25:57;;;;;;;;;35.00;35.00;;;;;;;;4933357;28;8923;-70
2020/12/07 08:28:27;;;;;;;;;38.33;38.33;;;;;;;;4940857;28;8905;-71
2020/12/07 08:31:02;;;;;;;;;35.00;33.67;;;;;;;;4936965;28;8823;-71
2020/12/07 08:33:30;;;;;;;;;37.00;34.33;;;;;;;;4923400;28;8925;-71
2020/12/07 08:35:57;;;;;;;;;37.67;36.00;;;;;;;;4923679;28;9730;-71
2020/12/07 08:38:25;;;;;;;;;33.00;31.00;;;;;;;;4923483;28;8858;-70
2020/12/07 08:40:52;;;;;;;;;40.67;36.00;;;;;;;;4907080;28;8865;-70
2020/12/07 08:43:20;;;;;;;;;40.00;40.00;;;;;;;;4943157;28;8876;-70
2020/12/07 08:45:47;;;;;;;;;30.00;28.33;;;;;;;;4927692;28;8911;-71
2020/12/07 08:48:15;;;;;;;;;36.00;29.00;;;;;;;;4939696;28;8850;-70
2020/12/07 08:50:41;;;;;;;;;39.00;34.33;;;;;;;;4917271;28;8952;-70
2020/12/07 08:53:08;;;;;;;;;52.67;37.33;;;;;;;;4937977;28;8861;-71
2020/12/07 08:55:35;;;;;;;;;28.00;28.00;;;;;;;;4919304;28;8889;-71
2020/12/07 08:58:02;;;;;;;;;45.67;37.67;;;;;;;;4929221;28;8966;-71
2020/12/07 09:00:30;;;;;;;;;38.33;36.00;;;;;;;;4927314;28;8841;-71
2020/12/07 09:02:57;;;;;;;;;53.67;40.00;;;;;;;;4935405;28;8877;-70
2020/12/07 09:05:23;;;;;;;;;36.67;36.67;;;;;;;;4914986;28;8868;-70
2020/12/07 09:07:50;;;;;;;;;39.67;36.67;;;;;;;;4912499;28;8889;-71
2020/12/07 09:10:17;;;;;;;;;37.00;32.00;;;;;;;;4939667;28;8915;-71
2020/12/07 09:12:44;;;;;;;;;24.00;24.00;;;;;;;;4916096;28;8883;-71
2020/12/07 09:15:11;;;;;;;;;51.33;43.33;;;;;;;;4932955;28;8905;-70
2020/12/07 09:17:39;;;;;;;;;45.67;42.33;;;;;;;;4920809;28;8906;-71
2020/12/07 09:20:06;;;;;;;;;48.67;39.00;;;;;;;;4919235;28;8892;-71
2020/12/07 09:22:33;;;;;;;;;60.00;45.33;;;;;;;;4927380;28;8900;-71
2020/12/07 09:25:00;;;;;;;;;43.67;40.00;;;;;;;;4917981;28;8876;-70
2020/12/07 09:27:26;;;;;;;;;38.00;33.33;;;;;;;;4924505;28;11627;-70
2020/12/07 09:29:53;;;;;;;;;54.33;45.33;;;;;;;;4922079;28;8876;-70
2020/12/07 09:32:20;;;;;;;;;36.00;33.67;;;;;;;;4921640;28;8849;-71
2020/12/07 09:34:48;;;;;;;;;37.00;34.33;;;;;;;;4901529;29;8885;-70
2020/12/07 09:37:15;;;;;;;;;47.00;40.00;;;;;;;;4903266;29;8925;-70
2020/12/07 09:39:42;;;;;;;;;47.00;41.00;;;;;;;;4904112;28;8885;-69
2020/12/07 09:42:08;;;;;;;;;54.00;45.00;;;;;;;;4897063;29;8907;-70
2020/12/07 09:44:35;;;;;;;;;54.67;42.33;;;;;;;;4894736;29;8906;-71
2020/12/07 09:47:02;;;;;;;;;47.00;42.33;;;;;;;;4900299;29;8861;-71
2020/12/07 09:49:29;;;;;;;;;49.00;44.00;;;;;;;;4909209;28;8881;-71
2020/12/07 09:51:57;;;;;;;;;45.33;39.00;;;;;;;;4926251;28;8884;-71
2020/12/07 09:54:24;;;;;;;;;29.67;21.33;;;;;;;;4943394;28;8877;-70
2020/12/07 09:56:50;;;;;;;;;39.67;36.33;;;;;;;;4914935;28;11641;-70
2020/12/07 09:59:17;;;;;;;;;39.67;37.33;;;;;;;;4899023;29;11638;-71
2020/12/07 10:01:44;;;;;;;;;46.33;41.33;;;;;;;;4894894;28;8890;-70
2020/12/07 10:04:11;;;;;;;;;46.00;41.67;;;;;;;;4898286;29;11685;-70
2020/12/07 10:06:38;;;;;;;;;36.00;31.67;;;;;;;;4888728;29;8868;-70
2020/12/07 10:09:06;;;;;;;;;41.33;38.33;;;;;;;;4893022;29;11688;-71
2020/12/07 10:11:33;;;;;;;;;34.33;31.00;;;;;;;;4892074;29;11659;-72
2020/12/07 10:13:59;;;;;;;;;47.33;40.33;;;;;;;;4891348;29;11686;-71
2020/12/07 10:16:26;;;;;;;;;46.67;41.33;;;;;;;;4904707;28;11692;-71
2020/12/07 10:18:53;;;;;;;;;43.67;39.00;;;;;;;;4892573;29;11669;-71
2020/12/07 10:21:25;;;;;;;;;32.33;24.33;;;;;;;;4895626;29;11665;-72
2020/12/07 10:23:52;;;;;;;;;33.75;32.00;;;;;;;;4894464;29;11640;-71
2020/12/07 10:26:24;;;;;;;;;35.25;30.00;;;;;;;;4897091;29;11647;-71
2020/12/07 10:28:51;;;;;;;;;33.33;31.67;;;;;;;;4900294;29;11635;-71
2020/12/07 10:31:19;;;;;;;;;41.67;35.67;;;;;;;;4901699;28;11593;-71
2020/12/07 10:33:46;;;;;;;;;37.75;34.00;;;;;;;;4917829;28;11798;-72
2020/12/07 10:36:13;;;;;;;;;27.25;26.50;;;;;;;;4924433;28;11644;-70
2020/12/07 10:38:40;;;;;;;;;39.33;39.33;;;;;;;;4925872;28;11625;-71
2020/12/07 10:41:07;;;;;;;;;39.33;34.00;;;;;;;;4932794;28;11657;-71
2020/12/07 10:43:34;;;;;;;;;42.67;31.33;;;;;;;;4935328;28;11692;-71
2020/12/07 10:46:01;;;;;;;;;47.67;41.00;;;;;;;;4910295;28;11688;-70
2020/12/07 10:48:28;;;;;;;;;41.33;39.00;;;;;;;;4918859;28;12448;-72
2020/12/07 10:50:56;;;;;;;;;40.00;36.33;;;;;;;;4916614;28;11677;-71
2020/12/07 10:53:24;;;;;;;;;48.33;39.00;;;;;;;;4957597;28;11596;-71
2020/12/07 10:55:52;;;;;;;;;41.33;40.33;;;;;;;;4927584;28;11778;-71
2020/12/07 10:58:19;;;;;;;;;49.00;41.67;;;;;;;;4927280;28;12664;-72
2020/12/07 11:00:47;;;;;;;;;44.50;40.25;;;;;;;;4928314;28;11718;-73
2020/12/07 11:03:14;;;;;;;;;40.00;37.33;;;;;;;;4917493;28;11663;-72
2020/12/07 11:05:42;;;;;;;;;33.25;32.25;;;;;;;;4942915;28;11638;-72
2020/12/07 11:08:16;;;;;;;;;48.25;38.50;;;;;;;;4925990;28;11723;-72
2020/12/07 11:10:43;;;;;;;;;46.75;41.00;;;;;;;;4923511;28;12409;-72
2020/12/07 11:13:22;;;;;;;;;36.00;34.00;;;;;;;;4923482;28;11658;-72
2020/12/07 11:15:50;;;;;;;;;47.50;37.50;;;;;;;;4926781;28;11695;-72
2020/12/07 11:18:16;;;;;;;;;54.33;41.33;;;;;;;;4922775;28;11741;-71
2020/12/07 11:20:43;;;;;;;;;51.33;47.33;;;;;;;;4915116;28;11633;-72
2020/12/07 11:23:10;;;;;;;;;42.25;37.25;;;;;;;;4940212;28;12587;-71
2020/12/07 11:25:37;;;;;;;;;45.00;43.50;;;;;;;;4935848;28;11648;-72
2020/12/07 11:28:04;;;;;;;;;45.75;40.50;;;;;;;;4923792;28;12366;-72
2020/12/07 11:30:32;;;;;;;;;52.75;42.75;;;;;;;;4915734;28;11590;-71
2020/12/07 11:33:00;;;;;;;;;50.50;42.25;;;;;;;;4937633;28;11679;-72
2020/12/07 11:35:26;;;;;;;;;43.50;39.50;;;;;;;;4924575;28;11702;-72
2020/12/07 11:37:58;;;;;;;;;39.50;35.25;;;;;;;;4938960;28;11674;-72
2020/12/07 11:40:38;;;;;;;;;46.75;41.75;;;;;;;;4927187;28;11627;-72
2020/12/07 11:43:14;;;;;;;;;33.75;28.00;;;;;;;;4924656;28;11619;-70
2020/12/07 11:45:41;;;;;;;;;57.00;43.33;;;;;;;;4922628;28;11631;-71
2020/12/07 11:48:10;;;;;;;;;44.75;40.75;;;;;;;;4936218;28;11677;-71
2020/12/07 11:50:38;;;;;;;;;61.33;44.00;;;;;;;;4932674;28;11661;-71
2020/12/07 11:53:05;;;;;;;;;52.00;44.33;;;;;;;;4930776;28;11726;-70
2020/12/07 11:55:32;;;;;;;;;23.75;23.75;;;;;;;;4914479;28;12344;-71
2020/12/07 11:57:59;;;;;;;;;61.00;46.67;;;;;;;;4905315;29;11637;-70
2020/12/07 12:00:26;;;;;;;;;68.67;57.00;;;;;;;;4900740;28;11594;-70
2020/12/07 12:02:52;;;;;;;;;45.50;37.75;;;;;;;;4907310;28;8919;-70
2020/12/07 12:05:20;;;;;;;;;44.25;41.75;;;;;;;;4925650;28;11700;-70
2020/12/07 12:07:47;;;;;;;;;42.50;34.25;;;;;;;;4932713;28;11649;-70
2020/12/07 12:10:14;;;;;;;;;42.25;41.25;;;;;;;;4927675;28;11666;-71
2020/12/07 12:12:40;;;;;;;;;38.00;35.75;;;;;;;;4927947;28;11608;-71
2020/12/07 12:15:07;;;;;;;;;43.50;37.00;;;;;;;;4939704;28;11637;-70
2020/12/07 12:17:34;;;;;;;;;40.00;38.25;;;;;;;;4926757;28;11659;-70
2020/12/07 12:20:01;;;;;;;;;45.75;40.00;;;;;;;;4943639;28;11648;-70
2020/12/07 12:22:30;;;;;;;;;39.00;37.75;;;;;;;;4904134;28;11625;-71
2020/12/07 12:24:57;;;;;;;;;42.00;38.50;;;;;;;;4905686;29;11665;-70
2020/12/07 12:27:24;;;;;;;;;29.75;29.75;;;;;;;;4904271;29;11699;-71
2020/12/07 12:29:51;;;;;;;;;32.75;30.75;;;;;;;;4903008;29;12395;-71
2020/12/07 12:32:18;;;;;;;;;42.00;40.00;;;;;;;;4899158;28;11600;-71
2020/12/07 12:34:44;;;;;;;;;37.75;30.25;;;;;;;;4900459;29;11644;-71
2020/12/07 12:37:11;;;;;;;;;39.25;37.50;;;;;;;;4906471;29;11666;-71
2020/12/07 12:39:39;;;;;;;;;40.25;37.00;;;;;;;;4919792;28;11719;-71
2020/12/07 12:42:06;;;;;;;;;40.25;33.50;;;;;;;;4924160;29;11641;-71
2020/12/07 12:44:33;;;;;;;;;43.00;31.50;;;;;;;;4948328;28;11639;-71
2020/12/07 12:47:00;;;;;;;;;40.25;32.00;;;;;;;;4952438;28;11668;-71
2020/12/07 12:49:27;;;;;;;;;33.00;33.00;;;;;;;;4937580;28;11674;-71
2020/12/07 12:51:55;;;;;;;;;42.75;36.50;;;;;;;;4938497;28;12470;-71
2020/12/07 12:54:21;;;;;;;;;42.75;38.50;;;;;;;;4937384;28;11735;-71
2020/12/07 12:56:49;;;;;;;;;40.00;35.25;;;;;;;;4951363;28;12521;-71
2020/12/07 12:59:16;;;;;;;;;42.00;34.25;;;;;;;;4943744;28;11683;-70
2020/12/07 13:01:42;;;;;;;;;33.00;31.50;;;;;;;;4943449;28;12355;-71
2020/12/07 13:04:09;;;;;;;;;56.00;45.00;;;;;;;;4948153;28;11629;-71
2020/12/07 13:06:36;;;;;;;;;39.25;36.50;;;;;;;;4951053;28;11665;-71
2020/12/07 13:09:05;;;;;;;;;38.00;35.75;;;;;;;;4941243;28;11614;-72
2020/12/07 13:11:32;;;;;;;;;41.00;31.00;;;;;;;;4944602;28;11613;-71
2020/12/07 13:14:00;;;;;;;;;42.75;38.50;;;;;;;;4927367;28;11642;-70
2020/12/07 13:16:33;;;;;;;;;40.00;36.25;;;;;;;;4930401;28;11650;-71
2020/12/07 13:19:00;;;;;;;;;42.00;35.00;;;;;;;;4946967;28;12410;-71
2020/12/07 13:21:31;;;;;;;;;36.50;34.25;;;;;;;;4954950;28;11631;-71
2020/12/07 13:24:02;;;;;;;;;37.50;35.50;;;;;;;;4934108;28;11638;-71
2020/12/07 13:26:35;;;;;;;;;39.50;31.00;;;;;;;;4951311;28;11658;-71
2020/12/07 13:29:03;;;;;;;;;29.00;29.00;;;;;;;;4937008;28;13515;-71
2020/12/07 13:31:38;;;;;;;;;33.75;30.50;;;;;;;;4921380;28;11734;-71
2020/12/07 13:34:05;;;;;;;;;33.00;29.25;;;;;;;;4924261;28;11670;-71
2020/12/07 13:36:32;;;;;;;;;39.25;33.25;;;;;;;;4938387;28;11668;-71
2020/12/07 13:38:59;;;;;;;;;39.25;32.50;;;;;;;;4911270;28;11644;-71
2020/12/07 13:41:26;;;;;;;;;34.75;33.75;;;;;;;;4904335;28;11684;-71
2020/12/07 13:43:53;;;;;;;;;29.00;25.00;;;;;;;;4943969;28;11648;-71
2020/12/07 13:46:21;;;;;;;;;34.00;32.25;;;;;;;;4930881;28;11756;-71
2020/12/07 13:48:48;;;;;;;;;30.00;28.50;;;;;;;;4936494;28;11665;-71
2020/12/07 13:51:18;;;;;;;;;37.25;33.25;;;;;;;;4904336;28;11657;-71
2020/12/07 13:53:46;;;;;;;;;33.25;26.75;;;;;;;;4904935;28;11701;-71
2020/12/07 13:56:13;;;;;;;;;34.00;27.50;;;;;;;;4899604;28;11645;-71
2020/12/07 13:58:40;;;;;;;;;32.75;29.25;;;;;;;;4906461;29;11657;-71
2020/12/07 14:01:07;;;;;;;;;32.00;28.75;;;;;;;;4920661;28;11646;-71
2020/12/07 14:03:38;;;;;;;;;29.75;27.00;;;;;;;;4902038;28;11711;-71
2020/12/07 14:06:05;;;;;;;;;30.00;27.75;;;;;;;;4908510;28;11690;-71
2020/12/07 14:08:32;;;;;;;;;25.00;23.25;;;;;;;;4903651;28;11659;-71
2020/12/07 14:10:59;;;;;;;;;40.25;38.00;;;;;;;;4896437;28;11778;-71
2020/12/07 14:13:26;;;;;;;;;45.50;39.75;;;;;;;;4904201;29;11657;-71
2020/12/07 14:15:53;;;;;;;;;41.50;38.00;;;;;;;;4947541;28;11655;-71
2020/12/07 14:18:22;;;;;;;;;51.25;42.75;;;;;;;;4910685;29;11643;-70
2020/12/07 14:21:02;;;;;;;;;58.00;43.75;;;;;;;;4920467;28;11715;-71
2020/12/07 14:23:35;;;;;;;;;37.25;31.75;;;;;;;;4917754;29;11670;-71
2020/12/07 14:26:15;;;;;;;;;37.00;31.25;;;;;;;;4896534;29;11628;-71
2020/12/07 14:31:55;;;;;;;;;31.00;27.75;;;;;;;;4900863;28;11662;-70
2020/12/07 14:40:06;;;;;;;;;35.25;32.75;;;;;;;;4902708;29;11606;-70
2020/12/07 14:42:33;;;;;;;;;33.00;29.50;;;;;;;;4895629;29;11691;-70
2020/12/07 14:45:01;;;;;;;;;33.50;32.75;;;;;;;;4907274;29;11740;-71
2020/12/07 14:47:29;;;;;;;;;38.25;35.50;;;;;;;;4907656;29;12306;-70
2020/12/07 14:50:03;;;;;;;;;46.50;38.50;;;;;;;;4904530;29;11776;-70
2020/12/07 14:52:32;;;;;;;;;52.00;45.00;;;;;;;;4913006;29;11644;-70
2020/12/07 14:55:05;;;;;;;;;51.50;45.00;;;;;;;;4896112;29;11799;-70
2020/12/07 14:57:40;;;;;;;;;26.50;26.00;;;;;;;;4901500;29;11792;-70
2020/12/07 15:05:39;;;;;;;;;28.00;24.25;;;;;;;;4902289;28;11732;-71
2020/12/07 15:14:01;;;;;;;;;51.25;45.00;;;;;;;;4947821;28;11609;-71
2020/12/07 15:16:29;;;;;;;;;42.25;40.25;;;;;;;;4915147;28;11665;-70
2020/12/07 15:18:56;;;;;;;;;48.25;45.50;;;;;;;;4943229;28;11669;-70
2020/12/07 15:21:24;;;;;;;;;54.50;48.25;;;;;;;;4901191;29;11684;-71
2020/12/07 15:23:52;;;;;;;;;41.25;39.00;;;;;;;;4906497;29;11660;-70
2020/12/07 15:26:19;;;;;;;;;51.50;43.75;;;;;;;;4909092;29;11744;-70